Valparaiso, FL

4:40 PM CST on February 07, 2016 (GMT -0600)
Eglin Air Force Base | | Change Station
CLOSE
Current Station
Airport
Location: Valparaiso,
Elevation: 85 ft
Nearby Weather Stations
Active Advisory: Wind Advisory

Elev 85 ft 30.48 °N, 86.53 °W | Updated 45 minutes ago

Clear
Clear
61 °F
Feels Like 61 °F
N
7
Wind Variable Wind from NW

Today
High -- | Low -- °F
--% Chance of Precip.
Yesterday
High -- | Low -- °F
Precip. -- in
Pressure 30.07 in
Visibility 10.0 miles
Clouds Clear
Dew Point 23 °F
Humidity 24%
Rainfall 0.00 in
Snow Depth Not available.
6:33 AM 5:27 PM
Waning Crescent, 1% visible
METAR KVPS 072155Z 32006KT 10SM CLR 16/M05 A3005 RMK AO2A SLP183 T01621048 $
Pressure 30.07 in
Visibility 10.0 miles
Clouds Clear
Dew Point 23 °F
Humidity 24%
Rainfall 0.00 in
Snow Depth Not available.
6:33 AM 5:27 PM
Waning Crescent, 1% visible
METAR KVPS 072155Z 32006KT 10SM CLR 16/M05 A3005 RMK AO2A SLP183 T01621048 $

10-Day Weather Forecast

Almanac

Astronomy

Feb. 07, 2016 Rise Set
Actual Time
Civil Twilight
Nautical Twilight
Astronomical Twilight
Moon
Length of Visible Light
Length of Day
Tomorrow will be .
, % of the Moon is Illuminated

Today's Extremes

State Highs State Lows

Community

WunderPhotos

Upload Photos

1,891,324 photos uploaded!

WunderBlog® & News

Nearby

Air Quality

  Air Quality AQ Index Pollutant
Not available.

Snow Depth

Station Depth Elevation

Earthquake Activity

City Distance Mag. Time & Date
Minimum magnitude displayed is 2.5.

Coastal Water Temperatures

Place Temperature

Stations

Nearby Weather Stations

Station Location Temp. Windchill Dew Point Humidity Wind Precip. Elev Updated Type
                   

Watches & Warnings

Wind Advisory
Issued: 2:49 PM CST Feb. 7, 2016 – National Weather Service

... Wind Advisory in effect from noon Monday to 6 am CST Tuesday...

The National Weather Service in Mobile has issued a Wind
Advisory... which is in effect from noon Monday to 6 am CST
Tuesday.

* Timing... Monday afternoon through Monday night.

* Winds... northwest and increasing to 25 to 30 mph with frequent
higher gusts in excess of 35 mph likely.

Precautionary/preparedness actions...

A Wind Advisory means that winds of 30 to 39 mph are expected.
Winds this strong can make driving difficult...
especially for high profile vehicles. Use extra caution.